Time;durP1;ratioP1;P1;durP2;ratioP2;P2;SDS_P1;SDS_P2;PMS_P1;PMS_P2;Temp;Humidity;BMP_temperature;BMP_pressure;BME280_temperature;BME280_humidity;BME280_pressure;Samples;Min_cycle;Max_cycle;Signal;HPM_P1;HPM_P2
2022/11/24 00:01:24;;;;;;;3.17;1.50;;;9.30;99.90;;;9.69;nan;99846.63;4994578;28;20653;-66
2022/11/24 00:04:01;;;;;;;3.63;1.73;;;9.40;99.90;;;9.69;nan;99837.00;5004133;28;20984;-65
2022/11/24 00:06:30;;;;;;;1.97;1.20;;;9.40;99.90;;;9.79;nan;99842.31;4995454;28;20627;-66
2022/11/24 00:08:57;;;;;;;2.87;1.43;;;9.50;99.90;;;9.75;nan;99849.53;5003879;28;20662;-68
2022/11/24 00:11:31;;;;;;;1.20;0.80;;;9.50;99.90;;;9.85;nan;99852.22;4994481;28;20641;-65
2022/11/24 00:13:59;;;;;;;1.33;1.17;;;9.50;99.90;;;9.83;nan;99856.75;4993605;28;20654;-66
2022/11/24 00:16:32;;;;;;;2.70;1.20;;;9.50;99.90;;;9.86;nan;99859.13;4993732;28;20670;-65
2022/11/24 00:19:02;;;;;;;1.77;1.07;;;9.60;99.90;;;9.80;nan;99860.41;4984763;28;21084;-66
2022/11/24 00:21:31;;;;;;;5.53;1.23;;;9.60;99.90;;;9.74;nan;99855.72;4978283;28;20619;-68
2022/11/24 00:23:58;;;;;;;2.40;1.43;;;9.50;99.90;;;9.71;nan;99862.94;4996131;28;20637;-66
2022/11/24 00:26:31;;;;;;;2.70;1.10;;;9.50;99.90;;;9.69;nan;99860.44;4995261;28;21045;-65
2022/11/24 00:29:02;;;;;;;5.03;1.20;;;9.50;99.90;;;9.62;nan;99861.06;5001568;28;21036;-67
2022/11/24 00:31:38;;;;;;;2.13;1.23;;;9.40;99.90;;;9.55;nan;99862.50;5013931;28;20597;-66
2022/11/24 00:34:10;;;;;;;1.33;1.23;;;9.40;99.90;;;9.62;nan;99867.13;4992789;28;20640;-66
2022/11/24 00:36:38;;;;;;;0.60;0.60;;;9.30;99.90;;;9.74;nan;99860.09;4991938;28;20647;-66
2022/11/24 00:39:09;;;;;;;4.10;1.17;;;9.40;99.90;;;9.77;nan;99867.66;4968346;28;20651;-66
2022/11/24 00:41:36;;;;;;;3.03;1.90;;;9.50;99.90;;;9.61;nan;99867.22;4975759;28;20668;-67
2022/11/24 00:44:04;;;;;;;2.63;1.60;;;9.40;99.90;;;9.56;nan;99872.78;4994639;28;20649;-66
2022/11/24 00:46:31;;;;;;;1.60;1.30;;;9.40;99.90;;;9.71;nan;99878.59;5005595;28;21201;-66
2022/11/24 00:48:59;;;;;;;1.63;1.23;;;9.40;99.90;;;9.63;nan;99884.38;4992790;28;21460;-66
2022/11/24 00:51:29;;;;;;;1.43;1.20;;;9.40;99.90;;;9.45;nan;99882.41;4995161;28;20630;-68
2022/11/24 00:53:57;;;;;;;6.10;1.40;;;9.30;99.90;;;9.43;nan;99887.75;4997485;28;20633;-66
2022/11/24 00:56:25;;;;;;;3.83;1.33;;;9.20;99.90;;;9.36;nan;99889.19;4991039;28;20666;-66
2022/11/24 00:58:52;;;;;;;2.00;1.20;;;9.20;99.90;;;9.36;nan;99895.22;4991560;28;20673;-67
2022/11/24 01:01:23;;;;;;;1.27;1.17;;;9.20;99.90;;;9.31;nan;99905.16;4989532;28;20606;-66
2022/11/24 01:03:51;;;;;;;1.23;1.10;;;9.10;99.90;;;9.32;nan;99908.59;4987886;28;20622;-68
2022/11/24 01:06:22;;;;;;;4.00;1.23;;;9.10;99.90;;;9.30;nan;99915.69;4995825;28;20688;-66
2022/11/24 01:08:49;;;;;;;1.70;1.00;;;9.10;99.90;;;9.28;nan;99922.81;5000506;28;20625;-68
2022/11/24 01:14:26;;;;;;;3.00;1.30;;;9.00;99.90;;;9.22;nan;99928.47;4995185;28;20626;-66
2022/11/24 01:16:53;;;;;;;1.67;1.03;;;9.00;99.90;;;9.10;nan;99926.81;5013307;28;20673;-67
2022/11/24 01:19:20;;;;;;;2.07;1.33;;;9.00;99.90;;;9.26;nan;99935.09;4999925;28;20657;-66
2022/11/24 01:21:47;;;;;;;0.83;0.83;;;9.00;99.90;;;9.33;nan;99941.47;5013874;28;20614;-66
2022/11/24 01:24:15;;;;;;;3.17;1.40;;;9.00;99.90;;;9.30;nan;99939.13;5008891;28;20645;-64
2022/11/24 01:26:42;;;;;;;1.20;1.20;;;9.00;99.90;;;9.25;nan;99939.47;4992842;28;20610;-66
2022/11/24 01:29:10;;;;;;;4.07;1.17;;;9.00;99.90;;;9.28;nan;99946.22;4993234;28;20669;-68
2022/11/24 01:31:38;;;;;;;3.03;1.03;;;9.00;99.90;;;9.41;nan;99943.50;4976047;28;20624;-66
2022/11/24 01:34:05;;;;;;;1.43;0.60;;;9.10;99.90;;;9.53;nan;99945.97;4994779;28;20637;-66
2022/11/24 01:36:32;;;;;;;1.07;0.90;;;9.20;99.90;;;9.58;nan;99951.66;4997046;28;20671;-66
2022/11/24 01:38:59;;;;;;;1.50;1.10;;;9.20;99.90;;;9.57;nan;99963.00;5007323;28;20647;-66
2022/11/24 01:41:27;;;;;;;1.30;0.90;;;9.30;99.90;;;9.58;nan;99962.06;4991975;28;20630;-66
2022/11/24 01:43:55;;;;;;;2.20;1.30;;;9.30;99.90;;;9.64;nan;99965.97;4995500;28;20992;-66
2022/11/24 01:46:30;;;;;;;6.60;1.47;;;9.30;99.90;;;9.66;nan;99970.09;5004241;28;20623;-66
2022/11/24 01:49:02;;;;;;;1.50;1.40;;;9.30;99.90;;;9.64;nan;99976.38;4990051;28;21247;-65
2022/11/24 01:51:34;;;;;;;1.23;1.00;;;9.30;99.90;;;9.70;nan;99970.69;4992798;28;20614;-66
2022/11/24 01:54:08;;;;;;;2.07;1.40;;;9.40;99.90;;;9.82;nan;99972.31;4978715;28;20699;-66
2022/11/24 01:56:39;;;;;;;1.10;1.10;;;9.40;99.90;;;9.82;nan;99973.16;4994904;28;20649;-65
2022/11/24 01:59:11;;;;;;;0.60;0.60;;;9.50;99.90;;;9.80;nan;99979.44;4994023;28;20723;-65
2022/11/24 02:01:38;;;;;;;1.60;1.10;;;9.50;99.90;;;9.80;nan;99976.81;4974547;28;20732;-65
2022/11/24 02:04:11;;;;;;;3.20;1.03;;;9.50;99.90;;;9.88;nan;99966.63;4993838;28;20634;-65
2022/11/24 02:06:41;;;;;;;1.67;1.07;;;9.60;99.90;;;9.87;nan;99972.78;4978404;28;20642;-65
2022/11/24 02:09:23;;;;;;;0.93;0.93;;;9.60;99.90;;;9.93;nan;99967.09;4986854;28;21049;-66
2022/11/24 02:11:52;;;;;;;2.23;1.03;;;9.60;99.90;;;9.98;nan;99967.56;4979079;28;20647;-65
2022/11/24 02:14:22;;;;;;;1.27;1.17;;;9.70;99.90;;;9.95;nan;99967.78;5008661;28;20620;-63
2022/11/24 02:16:50;;;;;;;3.00;1.07;;;9.60;99.90;;;9.98;nan;99957.13;4976098;28;20759;-65
2022/11/24 02:19:38;;;;;;;1.60;0.90;;;9.60;99.90;;;10.02;nan;99961.16;4989384;28;21236;-64
2022/11/24 02:22:21;;;;;;;2.00;1.20;;;9.70;99.90;;;9.99;nan;99966.59;5009397;28;20687;-63
2022/11/24 02:24:56;;;;;;;1.20;0.90;;;9.70;99.90;;;9.94;nan;99968.75;4994993;28;20988;-64
2022/11/24 02:27:24;;;;;;;7.43;1.17;;;9.70;99.90;;;9.94;nan;99968.75;4997301;28;20652;-65
2022/11/24 02:29:51;;;;;;;0.90;0.90;;;9.70;99.90;;;10.10;nan;99967.44;5011008;28;21035;-64
2022/11/24 02:32:19;;;;;;;0.90;0.90;;;9.70;99.90;;;10.07;nan;99967.63;4994487;28;20624;-65
2022/11/24 02:34:46;;;;;;;3.43;1.03;;;9.80;99.90;;;9.97;nan;99963.28;5009858;28;20634;-63
2022/11/24 02:37:13;;;;;;;1.10;1.07;;;9.70;99.90;;;10.08;nan;99966.69;5011725;28;20665;-65
2022/11/24 02:39:40;;;;;;;0.83;0.83;;;9.70;99.90;;;10.18;nan;99960.78;4994793;28;20751;-65
2022/11/24 02:42:12;;;;;;;0.90;0.80;;;9.80;99.90;;;10.19;nan;99968.47;4991410;28;21046;-64
2022/11/24 02:44:45;;;;;;;0.93;0.70;;;9.80;99.90;;;10.14;nan;99961.03;4984156;28;20684;-64
2022/11/24 02:47:12;;;;;;;2.30;0.90;;;9.90;99.90;;;10.12;nan;99959.47;4991618;28;20700;-64
2022/11/24 02:49:40;;;;;;;0.50;0.50;;;9.90;99.90;;;10.10;nan;99951.78;4991271;28;20701;-65
2022/11/24 02:52:07;;;;;;;0.80;0.77;;;9.90;99.90;;;10.09;nan;99957.09;4992479;28;20634;-65
2022/11/24 02:54:34;;;;;;;0.90;0.70;;;9.80;99.90;;;10.01;nan;99955.09;5006451;28;20677;-64
2022/11/24 02:57:02;;;;;;;1.43;1.17;;;9.80;99.90;;;10.00;nan;99963.88;5006810;28;20678;-65
2022/11/24 02:59:29;;;;;;;2.20;0.43;;;9.80;99.90;;;9.98;nan;99962.34;4985474;28;21031;-64
2022/11/24 03:01:56;;;;;;;1.90;0.70;;;9.80;99.90;;;9.88;nan;99971.84;4991072;28;21178;-64
2022/11/24 03:04:23;;;;;;;3.70;0.60;;;9.80;99.90;;;9.90;nan;99969.97;5002854;28;20638;-64
2022/11/24 03:06:50;;;;;;;0.83;0.77;;;9.70;99.90;;;9.91;nan;99966.38;5010829;28;20668;-65
2022/11/24 03:09:17;;;;;;;0.90;0.90;;;9.70;99.90;;;9.88;nan;99975.25;4988583;28;20678;-65
2022/11/24 03:11:44;;;;;;;0.70;0.70;;;9.70;99.90;;;9.96;nan;99979.88;5000813;28;21025;-65
2022/11/24 03:14:11;;;;;;;0.43;0.43;;;9.70;99.90;;;9.90;nan;99973.38;5004410;28;20634;-63
2022/11/24 03:16:38;;;;;;;1.13;0.90;;;9.70;99.90;;;9.83;nan;99973.97;4991590;28;20662;-64
2022/11/24 03:19:05;;;;;;;1.10;1.10;;;9.70;99.90;;;9.85;nan;99972.09;4989499;28;20650;-64
2022/11/24 03:21:32;;;;;;;0.77;0.63;;;9.70;99.90;;;10.05;nan;99979.16;4991846;28;20627;-65
2022/11/24 03:23:59;;;;;;;0.83;0.70;;;9.70;99.90;;;10.14;nan;99981.03;5000521;28;21034;-65
2022/11/24 03:26:26;;;;;;;2.53;0.90;;;9.80;99.90;;;10.09;nan;99975.34;4984028;28;20696;-65
2022/11/24 03:28:55;;;;;;;2.13;1.07;;;9.80;99.90;;;10.15;nan;99980.09;4984535;28;20669;-65
2022/11/24 03:31:23;;;;;;;1.60;0.60;;;9.80;99.90;;;10.21;nan;99974.38;4980556;28;20657;-62
2022/11/24 03:33:50;;;;;;;1.57;0.70;;;9.80;99.90;;;10.07;nan;99969.44;4995939;28;20646;-65
2022/11/24 03:36:17;;;;;;;1.37;0.60;;;9.80;99.90;;;10.21;nan;99973.56;5001680;28;20708;-65
2022/11/24 03:38:44;;;;;;;0.87;0.80;;;9.90;99.90;;;10.17;nan;99969.53;4969954;28;20623;-65
2022/11/24 03:41:11;;;;;;;1.53;0.67;;;9.90;99.90;;;10.07;nan;99969.44;4987344;28;20622;-65
2022/11/24 03:43:38;;;;;;;0.97;0.93;;;9.80;99.90;;;10.09;nan;99964.94;4993730;28;20637;-65
2022/11/24 03:46:10;;;;;;;0.63;0.50;;;9.80;99.90;;;9.96;nan;99969.47;5010320;28;21193;-65
2022/11/24 03:48:37;;;;;;;2.17;0.67;;;9.80;99.90;;;9.77;nan;99971.88;4973268;28;21396;-65
2022/11/24 03:51:05;;;;;;;2.77;1.00;;;9.70;99.90;;;9.98;nan;99967.56;4986988;28;20644;-65
2022/11/24 03:53:33;;;;;;;0.80;0.80;;;9.80;99.90;;;9.95;nan;99968.63;5009506;28;20630;-65
2022/11/24 03:56:01;;;;;;;0.70;0.70;;;9.70;99.90;;;9.88;nan;99971.84;4992640;28;20727;-65
2022/11/24 03:58:29;;;;;;;1.23;0.60;;;9.70;99.90;;;9.82;nan;99982.72;4984474;28;20643;-65
2022/11/24 04:00:56;;;;;;;5.50;1.10;;;9.70;99.90;;;9.94;nan;99980.00;4982510;28;20697;-65
2022/11/24 04:03:24;;;;;;;2.50;1.00;;;9.70;99.90;;;10.08;nan;99981.50;4988233;28;20652;-64
2022/11/24 04:05:51;;;;;;;4.73;0.80;;;9.70;99.90;;;9.94;nan;99981.78;4974634;28;20611;-65
2022/11/24 04:08:18;;;;;;;0.83;0.83;;;9.70;99.90;;;9.97;nan;99990.19;4989952;28;20657;-63
2022/11/24 04:10:52;;;;;;;3.23;0.80;;;9.70;99.90;;;10.03;nan;99983.63;4986650;28;20725;-65
2022/11/24 04:13:23;;;;;;;1.77;1.10;;;9.70;99.90;;;10.02;nan;99987.22;4986951;28;20771;-65
2022/11/24 04:15:50;;;;;;;4.47;0.80;;;9.80;99.90;;;10.04;nan;99985.31;4990717;28;20688;-65
2022/11/24 04:18:19;;;;;;;1.50;0.50;;;9.70;99.90;;;10.04;nan;99990.53;5005165;28;20621;-63
2022/11/24 04:20:51;;;;;;;6.23;1.00;;;9.80;99.90;;;10.01;nan;99985.53;4991006;28;21085;-65
2022/11/24 04:23:18;;;;;;;1.53;1.00;;;9.80;99.90;;;10.10;nan;99995.25;4992421;28;20591;-63
2022/11/24 04:25:45;;;;;;;2.50;1.03;;;9.80;99.90;;;10.21;nan;99997.03;5000886;28;20609;-65
2022/11/24 04:28:12;;;;;;;1.70;0.83;;;9.80;99.90;;;10.18;nan;100003.31;4990215;28;20692;-62
2022/11/24 04:30:43;;;;;;;3.70;0.73;;;9.80;99.90;;;10.15;nan;99993.13;4990737;28;20655;-64
2022/11/24 04:33:10;;;;;;;4.83;1.00;;;9.80;99.90;;;10.02;nan;100000.25;4993653;28;20633;-65
2022/11/24 04:35:37;;;;;;;1.40;0.80;;;9.80;99.90;;;9.86;nan;100005.03;4994921;28;20621;-64
2022/11/24 04:38:04;;;;;;;0.63;0.53;;;9.80;99.90;;;9.84;nan;100012.09;4993515;28;20635;-64
2022/11/24 04:40:31;;;;;;;3.20;1.13;;;9.70;99.90;;;9.79;nan;100015.09;4993842;28;20664;-64
2022/11/24 04:42:58;;;;;;;0.73;0.73;;;9.70;99.90;;;9.86;nan;100018.06;4993942;28;20642;-67
2022/11/24 04:45:25;;;;;;;1.10;0.87;;;9.70;99.90;;;9.89;nan;100017.78;4991917;28;20688;-66
2022/11/24 04:47:52;;;;;;;1.53;1.17;;;9.70;99.90;;;9.89;nan;100020.41;4993393;28;20615;-66
2022/11/24 04:50:19;;;;;;;3.03;1.00;;;9.70;99.90;;;9.94;nan;100021.72;4992236;28;21554;-66
2022/11/24 04:52:48;;;;;;;4.27;0.67;;;9.70;99.90;;;9.91;nan;100027.16;4993943;28;20625;-65
2022/11/24 04:55:15;;;;;;;0.90;0.90;;;9.70;99.90;;;9.91;nan;100031.53;4975702;28;21249;-66
2022/11/24 04:57:43;;;;;;;3.90;1.13;;;9.70;99.90;;;9.99;nan;100032.56;4956465;28;20663;-65
2022/11/24 05:00:13;;;;;;;2.20;0.60;;;9.70;99.90;;;10.02;nan;100032.34;5002365;28;20719;-65
2022/11/24 05:02:40;;;;;;;1.90;0.90;;;9.70;99.90;;;10.00;nan;100026.44;5003434;28;21415;-66
2022/11/24 05:05:08;;;;;;;2.93;1.17;;;9.80;99.90;;;9.83;nan;100034.75;5010609;28;20699;-66
2022/11/24 05:07:35;;;;;;;0.60;0.60;;;9.70;99.90;;;9.91;nan;100044.56;5013531;28;20601;-65
2022/11/24 05:12:59;;;;;;;2.80;0.50;;;9.70;99.90;;;9.80;nan;100047.16;4978320;28;20618;-65
2022/11/24 05:15:26;;;;;;;1.57;0.67;;;9.70;99.90;;;9.94;nan;100057.34;5005164;28;20697;-66
2022/11/24 05:17:53;;;;;;;0.77;0.77;;;9.70;99.90;;;9.73;nan;100053.81;4993636;28;20695;-66
2022/11/24 05:20:26;;;;;;;4.90;1.00;;;9.60;99.90;;;9.86;nan;100046.72;4991484;28;20689;-66
2022/11/24 05:22:55;;;;;;;1.50;1.37;;;9.60;99.90;;;9.95;nan;100048.56;4978226;28;20597;-65
2022/11/24 05:25:24;;;;;;;7.00;1.20;;;9.70;99.90;;;10.02;nan;100055.81;4997590;28;20654;-66
2022/11/24 05:27:51;;;;;;;1.43;0.93;;;9.70;99.90;;;9.89;nan;100052.50;4993292;28;20623;-63
2022/11/24 05:30:18;;;;;;;1.10;0.87;;;9.70;99.90;;;9.98;nan;100054.41;4991156;28;20721;-66
2022/11/24 05:32:45;;;;;;;1.50;1.13;;;9.70;99.90;;;9.96;nan;100058.91;4992430;28;20626;-65
2022/11/24 05:35:13;;;;;;;0.77;0.50;;;9.70;99.90;;;10.02;nan;100061.03;5011220;28;20629;-66
2022/11/24 05:37:40;;;;;;;1.47;0.73;;;9.80;99.90;;;9.99;nan;100060.41;4992871;28;20731;-63
2022/11/24 05:40:07;;;;;;;3.23;0.70;;;9.80;99.90;;;9.86;nan;100059.75;4998231;28;20674;-65
2022/11/24 05:42:40;;;;;;;0.80;0.53;;;9.70;99.90;;;9.94;nan;100067.78;4991825;28;21194;-64
2022/11/24 05:45:19;;;;;;;0.90;0.90;;;9.70;99.90;;;9.78;nan;100062.09;4968974;28;20701;-65
2022/11/24 05:47:48;;;;;;;2.57;1.00;;;9.70;99.90;;;9.99;nan;100066.47;4989522;28;20631;-61
2022/11/24 05:50:18;;;;;;;5.67;0.90;;;9.70;99.90;;;9.94;nan;100073.00;4989853;28;20681;-64
2022/11/24 05:52:45;;;;;;;2.50;1.00;;;9.70;99.90;;;9.90;nan;100066.38;4974581;28;20633;-65
2022/11/24 05:55:15;;;;;;;0.90;0.90;;;9.70;99.90;;;9.91;nan;100079.25;4955708;28;20632;-63
2022/11/24 05:57:42;;;;;;;1.17;0.80;;;9.70;99.90;;;9.99;nan;100074.28;4974396;28;20694;-65
2022/11/24 06:00:10;;;;;;;4.17;0.80;;;9.70;99.90;;;9.95;nan;100074.63;4992202;28;20798;-65
2022/11/24 06:02:37;;;;;;;1.50;1.40;;;9.70;99.90;;;9.91;nan;100076.66;4974656;28;20595;-65
2022/11/24 06:05:05;;;;;;;1.70;0.73;;;9.70;99.90;;;9.87;nan;100079.63;4987382;28;20622;-65
2022/11/24 06:07:32;;;;;;;0.97;0.60;;;9.70;99.90;;;9.91;nan;100071.44;4974957;28;20607;-65
2022/11/24 06:09:58;;;;;;;2.50;0.87;;;9.70;99.90;;;9.98;nan;100080.47;4998595;28;20662;-65
2022/11/24 06:12:25;;;;;;;2.37;0.60;;;9.70;99.90;;;9.91;nan;100076.66;4993013;28;21107;-65
2022/11/24 06:14:52;;;;;;;5.67;1.33;;;9.70;99.90;;;9.97;nan;100081.38;4987911;28;20647;-65
2022/11/24 06:17:19;;;;;;;0.77;0.77;;;9.70;99.90;;;10.02;nan;100086.25;5011396;28;20707;-64
2022/11/24 06:19:48;;;;;;;2.53;1.00;;;9.70;99.90;;;10.00;nan;100083.78;5005165;28;20674;-65
2022/11/24 06:22:17;;;;;;;1.33;0.93;;;9.70;99.90;;;10.10;nan;100099.50;5011529;28;20602;-65
2022/11/24 06:24:45;;;;;;;2.73;0.90;;;9.80;99.90;;;10.06;nan;100103.31;5006425;28;20643;-64
2022/11/24 06:27:13;;;;;;;1.60;1.20;;;9.80;99.90;;;10.06;nan;100101.53;4989235;28;20661;-65
2022/11/24 06:29:40;;;;;;;0.70;0.70;;;9.80;99.90;;;10.03;nan;100113.94;4966633;28;20730;-64
2022/11/24 06:32:07;;;;;;;2.00;1.33;;;9.80;99.90;;;10.05;nan;100104.25;4991354;28;20643;-65
2022/11/24 06:34:34;;;;;;;0.50;0.50;;;9.70;99.90;;;10.04;nan;100113.84;4991015;28;20689;-65
2022/11/24 06:37:02;;;;;;;0.87;0.87;;;9.80;99.90;;;9.93;nan;100116.47;4989234;28;20671;-65
2022/11/24 06:39:29;;;;;;;1.60;0.90;;;9.70;99.90;;;9.89;nan;100109.81;4990873;28;21280;-65
2022/11/24 06:41:56;;;;;;;3.90;1.40;;;9.70;99.90;;;9.95;nan;100111.13;4984245;28;20638;-64
2022/11/24 06:44:23;;;;;;;3.30;1.10;;;9.70;99.90;;;9.85;nan;100111.00;4977486;28;21315;-65
2022/11/24 06:46:50;;;;;;;1.67;1.57;;;9.60;99.90;;;9.82;nan;100116.44;4989838;28;20622;-65
2022/11/24 06:49:17;;;;;;;0.60;0.60;;;9.60;99.90;;;9.82;nan;100116.44;4987558;28;20724;-65
2022/11/24 06:51:44;;;;;;;1.03;0.80;;;9.60;99.90;;;9.66;nan;100110.75;4992787;28;20633;-65
2022/11/24 06:54:16;;;;;;;1.60;0.80;;;9.60;99.90;;;9.54;nan;100124.69;4991921;28;20631;-65
2022/11/24 06:56:43;;;;;;;1.90;1.10;;;9.50;99.90;;;9.56;nan;100135.03;4989202;28;20678;-64
2022/11/24 06:59:19;;;;;;;1.30;0.70;;;9.50;99.90;;;9.53;nan;100133.47;4988662;28;20669;-65
2022/11/24 07:01:46;;;;;;;2.70;0.50;;;9.40;99.90;;;9.54;nan;100131.72;4984597;28;20610;-65
2022/11/24 07:04:13;;;;;;;0.70;0.70;;;9.40;99.90;;;9.49;nan;100133.81;4991451;28;20720;-65
2022/11/24 07:06:42;;;;;;;2.00;1.03;;;9.40;99.90;;;9.63;nan;100131.81;4992183;28;20634;-64
2022/11/24 07:09:11;;;;;;;1.27;1.17;;;9.40;99.90;;;9.36;nan;100149.53;4990645;28;21019;-65
2022/11/24 07:11:38;;;;;;;0.50;0.50;;;9.30;99.90;;;9.33;nan;100155.78;4993539;28;20658;-65
2022/11/24 07:14:06;;;;;;;3.30;0.83;;;9.30;99.90;;;9.39;nan;100160.53;4994739;28;20642;-65
2022/11/24 07:16:33;;;;;;;15.70;0.77;;;9.30;99.90;;;9.47;nan;100162.59;4972683;28;20624;-65
2022/11/24 07:19:01;;;;;;;0.70;0.70;;;9.40;99.90;;;9.47;nan;100164.34;4989723;28;20651;-65
2022/11/24 07:21:29;;;;;;;0.47;0.47;;;9.30;99.90;;;9.47;nan;100166.94;4990062;28;20635;-65
2022/11/24 07:23:57;;;;;;;0.83;0.33;;;9.30;99.90;;;9.51;nan;100168.38;5011137;28;20958;-65
2022/11/24 07:26:25;;;;;;;0.83;0.50;;;9.30;99.90;;;9.49;nan;100178.09;5000961;28;20716;-65
2022/11/24 07:28:52;;;;;;;0.93;0.50;;;9.40;99.90;;;9.38;nan;100184.94;4989473;28;20665;-66
2022/11/24 07:31:25;;;;;;;0.50;0.50;;;9.30;99.90;;;9.48;nan;100189.44;4987266;28;20614;-65
2022/11/24 07:33:54;;;;;;;9.23;1.50;;;9.30;99.90;;;9.48;nan;100186.81;4990311;28;20639;-63
2022/11/24 07:36:22;;;;;;;0.60;0.60;;;9.30;99.90;;;9.54;nan;100189.81;4999372;28;21044;-65
2022/11/24 07:38:49;;;;;;;0.97;0.80;;;9.30;99.90;;;9.49;nan;100201.53;4992114;28;20756;-65
2022/11/24 07:41:20;;;;;;;1.87;0.57;;;9.30;99.90;;;9.45;nan;100198.31;4990405;28;20617;-65
2022/11/24 07:43:49;;;;;;;1.23;1.23;;;9.30;99.90;;;9.56;nan;100193.13;4987880;28;20638;-64
2022/11/24 07:46:18;;;;;;;1.27;0.90;;;9.40;99.90;;;9.66;nan;100209.75;4985297;28;21004;-65
2022/11/24 07:48:46;;;;;;;2.83;0.80;;;9.40;99.90;;;9.67;nan;100208.78;4968869;28;20642;-64
2022/11/24 07:51:13;;;;;;;4.80;1.10;;;9.40;99.90;;;9.67;nan;100215.78;5002629;28;20648;-64
2022/11/24 07:53:40;;;;;;;3.57;1.20;;;9.40;99.90;;;9.74;nan;100219.59;4993081;28;20624;-63
2022/11/24 07:56:08;;;;;;;10.00;1.70;;;9.40;99.90;;;9.77;nan;100222.81;5000025;28;20650;-65
2022/11/24 07:58:36;;;;;;;5.73;1.00;;;9.50;99.90;;;9.72;nan;100217.09;4988688;28;21470;-65
2022/11/24 08:01:16;;;;;;;3.90;0.90;;;9.50;99.90;;;9.58;nan;100219.06;4977575;28;20630;-64
2022/11/24 08:03:44;;;;;;;0.70;0.70;;;9.40;99.90;;;9.56;nan;100213.97;4992650;28;20708;-64
2022/11/24 08:06:12;;;;;;;0.50;0.50;;;9.40;99.90;;;9.75;nan;100221.25;5003547;28;21170;-64
2022/11/24 08:08:59;;;;;;;1.00;1.00;;;9.50;99.90;;;9.65;nan;100226.31;4973770;28;21255;-64
2022/11/24 08:11:30;;;;;;;0.93;0.70;;;9.50;99.90;;;9.68;nan;100233.06;4958199;28;20649;-61
2022/11/24 08:13:57;;;;;;;1.23;0.90;;;9.40;99.90;;;9.59;nan;100225.94;4995673;28;20642;-64
2022/11/24 08:16:24;;;;;;;0.80;0.80;;;9.40;99.90;;;9.64;nan;100222.06;5007456;28;20621;-64
2022/11/24 08:18:53;;;;;;;2.73;0.40;;;9.50;99.90;;;9.81;nan;100223.41;4989468;28;20685;-64
2022/11/24 08:21:22;;;;;;;1.37;1.20;;;9.50;99.90;;;10.79;nan;100226.19;4976619;28;21027;-65
2022/11/24 08:23:56;;;;;;;2.03;1.27;;;10.00;99.90;;;13.09;nan;100236.31;4992670;28;20639;-65
2022/11/24 08:26:24;;;;;;;4.63;1.60;;;11.10;99.90;;;14.81;nan;100253.56;4976807;28;20633;-64
2022/11/24 08:28:57;;;;;;;3.30;1.40;;;12.40;99.90;;;15.82;nan;100247.03;4990804;28;20701;-65
2022/11/24 08:31:31;;;;;;;9.27;1.90;;;13.40;99.90;;;15.33;nan;100253.63;4990948;28;20607;-62
2022/11/24 08:34:00;;;;;;;1.50;1.40;;;13.70;99.90;;;13.97;nan;100250.91;4988331;28;20626;-65
2022/11/24 08:36:27;;;;;;;3.37;1.43;;;13.30;99.90;;;13.21;nan;100259.66;4972718;28;20716;-63
2022/11/24 08:38:56;;;;;;;4.17;1.80;;;12.80;99.90;;;12.73;nan;100258.69;4992984;28;21233;-63
2022/11/24 08:41:25;;;;;;;3.90;1.50;;;12.40;99.90;;;12.26;nan;100267.97;4993413;28;20712;-64
2022/11/24 08:43:53;;;;;;;6.27;1.80;;;12.00;99.90;;;12.19;nan;100274.69;4993547;28;20635;-63
2022/11/24 08:46:20;;;;;;;3.27;1.57;;;11.80;99.90;;;12.68;nan;100278.34;4995451;28;20638;-63
2022/11/24 08:48:51;;;;;;;4.07;1.77;;;11.80;99.90;;;13.74;nan;100275.81;5005105;28;20709;-64
2022/11/24 08:51:24;;;;;;;2.43;1.40;;;12.30;99.90;;;17.10;nan;100284.81;4973815;28;20688;-63
2022/11/24 08:53:57;;;;;;;7.20;1.50;;;13.70;99.90;;;19.34;nan;100285.53;4993118;28;21328;-64
2022/11/24 08:56:30;;;;;;;4.30;1.50;;;15.40;99.90;;;21.33;nan;100288.22;5006620;28;20635;-64
2022/11/24 08:58:57;;;;;;;3.83;1.73;;;17.10;99.90;;;20.62;nan;100293.38;5000238;28;20674;-64
2022/11/24 09:01:26;;;;;;;6.13;2.00;;;17.60;99.90;;;18.71;nan;100290.13;4982444;28;20708;-64
2022/11/24 09:03:53;;;;;;;3.60;1.50;;;17.20;99.90;;;17.72;nan;100286.91;4999904;28;20617;-64
2022/11/24 09:06:24;;;;;;;7.93;1.80;;;16.50;99.90;;;16.74;nan;100287.63;5012627;28;20647;-64
2022/11/24 09:08:54;;;;;;;3.70;1.67;;;15.80;99.90;;;15.96;nan;100287.75;5004101;28;20674;-65
2022/11/24 09:11:23;;;;;;;5.00;1.93;;;15.20;99.90;;;15.40;nan;100283.63;5000945;28;20653;-65
2022/11/24 09:13:50;;;;;;;1.83;1.13;;;14.70;99.90;;;14.85;nan;100287.28;4990043;28;20696;-64
2022/11/24 09:16:24;;;;;;;3.50;1.40;;;14.40;99.90;;;15.00;nan;100298.94;4992718;28;20980;-65
2022/11/24 09:19:09;;;;;;;1.70;1.13;;;14.10;99.90;;;14.68;nan;100301.16;5000058;28;21053;-64
2022/11/24 09:21:37;;;;;;;3.87;1.43;;;13.90;99.90;;;13.99;nan;100311.94;5010982;28;20978;-64
2022/11/24 09:24:06;;;;;;;1.13;1.10;;;13.50;99.90;;;13.71;nan;100311.97;5003273;28;20633;-65
2022/11/24 09:26:36;;;;;;;2.70;1.23;;;13.20;99.90;;;13.43;nan;100312.75;4978358;28;20844;-64
2022/11/24 09:29:05;;;;;;;4.13;1.60;;;13.00;99.90;;;12.67;nan;100313.34;4974418;28;20720;-65
2022/11/24 09:31:35;;;;;;;5.20;1.83;;;12.60;99.90;;;12.83;nan;100317.13;4992853;28;20637;-65
2022/11/24 09:34:10;;;;;;;2.83;1.27;;;12.40;99.90;;;12.62;nan;100321.59;4992700;28;20645;-65
2022/11/24 09:36:37;;;;;;;1.10;1.10;;;12.20;99.90;;;12.52;nan;100325.94;4970240;28;20618;-65
2022/11/24 09:39:04;;;;;;;1.63;1.20;;;12.10;99.90;;;12.48;nan;100324.53;4995587;28;20677;-65
2022/11/24 09:41:37;;;;;;;0.90;0.90;;;12.00;99.90;;;12.40;nan;100333.03;4996612;28;20642;-65
2022/11/24 09:45:11;;;;;;;8.60;1.30;;;11.90;99.90;;;12.58;nan;100335.06;4984363;28;20602;-65
2022/11/24 09:48:01;;;;;;;7.83;1.67;;;12.00;99.90;;;12.70;nan;100334.00;4951058;28;21192;-65
2022/11/24 09:50:34;;;;;;;3.93;1.23;;;12.00;99.90;;;12.67;nan;100342.94;4947759;28;20661;-64
2022/11/24 09:53:20;;;;;;;6.80;1.13;;;12.00;99.90;;;12.82;nan;100348.69;4964384;28;20645;-65
2022/11/24 09:55:55;;;;;;;2.93;1.37;;;12.10;99.90;;;13.03;nan;100342.41;4994436;28;20606;-65
2022/11/24 09:58:47;;;;;;;4.73;1.40;;;12.30;99.90;;;13.03;nan;100345.03;4978353;28;21087;-66
2022/11/24 10:01:18;;;;;;;4.43;1.13;;;12.50;99.90;;;13.09;nan;100357.66;4987220;28;20638;-63
2022/11/24 10:03:49;;;;;;;0.80;0.80;;;12.50;99.90;;;13.37;nan;100353.44;4998970;28;20610;-66
2022/11/24 10:06:39;;;;;;;3.27;1.97;;;12.60;99.90;;;13.37;nan;100356.06;4989983;28;20635;-63
2022/11/24 10:09:35;;;;;;;3.50;1.63;;;12.70;99.90;;;13.38;nan;100352.47;4970355;28;20656;-63
2022/11/24 10:12:02;;;;;;;7.00;1.43;;;12.70;99.90;;;13.36;nan;100351.78;4995342;28;20643;-66
2022/11/24 10:15:21;;;;;;;14.80;1.70;;;12.70;99.90;;;13.35;nan;100360.63;5006694;28;21053;-64
2022/11/24 10:18:28;;;;;;;4.27;1.20;;;12.70;99.90;;;13.52;nan;100359.94;4959012;28;20681;-64
2022/11/24 10:21:27;;;;;;;4.63;1.37;;;12.70;99.90;;;13.80;nan;100359.16;4967901;28;20650;-65
2022/11/24 10:24:41;;;;;;;1.17;0.70;;;12.90;99.90;;;14.16;nan;100365.50;4988141;28;21177;-65
2022/11/24 10:27:33;;;;;;;3.87;0.80;;;13.10;99.90;;;14.35;nan;100364.69;4992314;28;20712;-64
2022/11/24 10:30:01;;;;;;;1.57;0.80;;;13.30;99.90;;;14.36;nan;100356.66;5008932;28;20650;-64
2022/11/24 10:32:37;;;;;;;2.30;0.80;;;13.40;99.90;;;14.04;nan;100350.88;4980173;28;20639;-64
2022/11/24 10:35:27;;;;;;;3.27;1.20;;;13.40;99.90;;;13.88;nan;100354.03;5000965;28;20601;-63
2022/11/24 10:38:19;;;;;;;3.60;0.73;;;13.20;99.90;;;13.40;nan;100355.78;4989654;28;20739;-64
2022/11/24 10:40:52;;;;;;;6.00;0.97;;;13.10;99.90;;;13.21;nan;100355.75;5003241;28;21156;-64
2022/11/24 10:43:28;;;;;;;0.70;0.70;;;12.90;99.90;;;13.07;nan;100359.56;4974008;28;20636;-64
2022/11/24 10:46:09;;;;;;;3.03;1.20;;;12.70;99.90;;;12.99;nan;100355.94;4981622;28;20634;-64
2022/11/24 10:48:59;;;;;;;2.53;1.20;;;12.70;99.90;;;12.78;nan;100352.50;4985200;28;20633;-64
2022/11/24 10:51:29;;;;;;;1.57;0.87;;;12.60;99.90;;;12.98;nan;100365.56;4985743;28;20646;-64
2022/11/24 10:54:06;;;;;;;3.17;0.90;;;12.50;99.90;;;12.95;nan;100359.75;5002023;28;21416;-64
2022/11/24 10:56:44;;;;;;;4.33;0.90;;;12.50;99.90;;;12.79;nan;100352.41;4982114;28;20623;-64
2022/11/24 10:59:34;;;;;;;2.13;1.10;;;12.40;99.90;;;12.72;nan;100359.09;4977700;28;21249;-64